createdAt,value
2019-03-26T00:04:05.815Z,101763.92
2019-03-26T00:06:35.840Z,101769.14
2019-03-26T00:12:06.435Z,101770.45
2019-03-26T00:14:53.709Z,101768.97
2019-03-26T00:17:21.463Z,101767.36
2019-03-26T00:19:49.670Z,101772.66
2019-03-26T00:22:17.407Z,101770.05
2019-03-26T00:25:04.716Z,101779.23
2019-03-26T00:27:44.172Z,101786.21
2019-03-26T00:30:52.452Z,101785.86
2019-03-26T00:33:20.057Z,101797.78
2019-03-26T00:35:47.653Z,101786.59
2019-03-26T00:41:15.671Z,101794.05
2019-03-26T00:44:02.943Z,101788.56
2019-03-26T00:46:30.663Z,101789.60
2019-03-26T00:48:58.371Z,101793.67
2019-03-26T00:51:26.107Z,101791.23
2019-03-26T00:54:34.381Z,101795.19
2019-03-26T00:57:02.130Z,101796.02
2019-03-26T00:59:29.826Z,101799.73
2019-03-26T01:04:51.497Z,101804.64
2019-03-26T01:07:19.252Z,101800.37
2019-03-26T01:09:47.625Z,101803.48
2019-03-26T01:14:55.608Z,101802.50
2019-03-26T01:17:23.305Z,101810.92
2019-03-26T01:19:51.035Z,101813.04
2019-03-26T01:22:38.003Z,101811.73
2019-03-26T01:28:26.516Z,101807.86
2019-03-26T01:31:19.811Z,101810.22
2019-03-26T01:34:06.777Z,101810.70
2019-03-26T01:36:54.048Z,101810.27
2019-03-26T01:42:21.584Z,101827.98
2019-03-26T01:44:49.293Z,101820.13
2019-03-26T01:52:58.575Z,101823.71
2019-03-26T01:55:26.653Z,101825.16
2019-03-26T01:58:13.629Z,101826.63
2019-03-26T02:01:21.942Z,101829.41
2019-03-26T02:03:49.655Z,101831.72
2019-03-26T02:06:17.393Z,101836.80
2019-03-26T02:09:04.335Z,101832.55
2019-03-26T02:11:32.064Z,101833.70
2019-03-26T02:17:01.271Z,101840.02
2019-03-26T02:19:28.935Z,101835.60
2019-03-26T02:24:37.269Z,101850.87
2019-03-26T02:27:04.993Z,101858.41
2019-03-26T02:29:51.946Z,101857.84
2019-03-26T02:38:01.586Z,101864.48
2019-03-26T02:40:43.320Z,101874.19
2019-03-26T02:43:30.555Z,101869.75
2019-03-26T02:45:58.298Z,101872.66
2019-03-26T02:48:25.985Z,101878.39
2019-03-26T02:51:05.270Z,101879.95
2019-03-26T02:53:32.951Z,101874.27
2019-03-26T02:56:01.097Z,101874.27
2019-03-26T03:01:43.792Z,101872.78
2019-03-26T03:04:23.121Z,101883.09
2019-03-26T03:07:10.039Z,101879.50
2019-03-26T03:09:49.429Z,101876.81
2019-03-26T03:12:17.151Z,101881.75
2019-03-26T03:14:56.671Z,101891.93
2019-03-26T03:17:24.389Z,101886.08
2019-03-26T03:19:52.120Z,101895.69
2019-03-26T03:22:19.850Z,101893.77
2019-03-26T03:25:28.119Z,101891.41
2019-03-26T03:28:15.439Z,101894.20
2019-03-26T03:31:23.760Z,101902.01
2019-03-26T03:33:58.681Z,101900.84
2019-03-26T03:36:45.650Z,101908.81
2019-03-26T03:39:13.345Z,101909.91
2019-03-26T03:41:41.064Z,101911.34
2019-03-26T03:44:20.643Z,101909.37
2019-03-26T03:50:41.332Z,101909.22
2019-03-26T04:01:49.889Z,101920.85
2019-03-26T04:04:17.845Z,101934.77
2019-03-26T04:06:45.633Z,101930.56
2019-03-26T04:09:13.351Z,101933.95
2019-03-26T04:11:41.203Z,101935.51
2019-03-26T04:14:08.885Z,101936.34
2019-03-26T04:16:36.620Z,101934.16
2019-03-26T04:19:04.308Z,101939.33
2019-03-26T04:21:32.042Z,101939.02
2019-03-26T04:23:59.756Z,101945.52
2019-03-26T04:30:20.829Z,101938.20
2019-03-26T04:32:48.615Z,101946.48
2019-03-26T04:35:16.334Z,101948.19
2019-03-26T04:38:03.632Z,101953.79
2019-03-26T04:40:31.335Z,101961.63
2019-03-26T04:43:39.658Z,101960.48
2019-03-26T04:46:07.346Z,101957.61
2019-03-26T04:48:36.859Z,101960.77
2019-03-26T04:51:06.411Z,101958.72
2019-03-26T04:53:34.410Z,101965.73
2019-03-26T04:56:02.168Z,101964.12
2019-03-26T04:58:29.932Z,101972.14
2019-03-26T05:00:57.700Z,101972.72
2019-03-26T05:03:25.435Z,101970.55
2019-03-26T05:05:53.292Z,101969.94
2019-03-26T05:08:21.076Z,101969.05
2019-03-26T05:10:49.299Z,101969.23
2019-03-26T05:13:17.279Z,101974.31
2019-03-26T05:15:45.115Z,101971.03
2019-03-26T05:18:13.128Z,101971.92
2019-03-26T05:20:40.831Z,101983.31
2019-03-26T05:23:08.543Z,101978.63
2019-03-26T05:25:36.613Z,101981.20
2019-03-26T05:28:04.467Z,101980.23
2019-03-26T05:30:33.286Z,101984.20
2019-03-26T05:33:01.107Z,101975.19
2019-03-26T05:35:29.406Z,101974.30
2019-03-26T05:37:57.084Z,101976.02
2019-03-26T05:40:25.139Z,101985.08
2019-03-26T05:42:52.882Z,101982.39
2019-03-26T05:45:20.575Z,101984.00
2019-03-26T05:47:48.726Z,101980.40
2019-03-26T05:50:16.480Z,101985.41
2019-03-26T05:52:44.081Z,101986.57
2019-03-26T05:55:12.160Z,101983.66
2019-03-26T05:57:39.790Z,101984.42
2019-03-26T06:00:12.307Z,101990.75
2019-03-26T06:02:40.373Z,101989.73
2019-03-26T06:05:08.803Z,101995.30
2019-03-26T06:07:36.924Z,101995.54
2019-03-26T06:10:05.974Z,101999.69
2019-03-26T06:12:33.741Z,101998.97
2019-03-26T06:15:01.487Z,101992.70
2019-03-26T06:17:30.152Z,101990.20
2019-03-26T06:19:57.892Z,102005.95
2019-03-26T06:22:25.754Z,102009.02
2019-03-26T06:24:53.536Z,102006.25
2019-03-26T06:27:21.294Z,102006.80
2019-03-26T06:29:49.027Z,102018.72
2019-03-26T06:32:17.254Z,102008.46
2019-03-26T06:34:45.032Z,102001.95
2019-03-26T06:37:17.920Z,102000.62
2019-03-26T06:39:42.292Z,102004.16
2019-03-26T06:42:10.023Z,101999.68
2019-03-26T06:44:37.668Z,102001.89
2019-03-26T06:47:05.434Z,101998.06
2019-03-26T06:49:33.163Z,102000.98
2019-03-26T06:52:00.876Z,102008.23
2019-03-26T06:54:28.639Z,102011.91
2019-03-26T06:56:56.375Z,102007.81
2019-03-26T06:59:24.119Z,102012.11
2019-03-26T07:01:52.258Z,102013.41
2019-03-26T07:04:19.981Z,102012.03
2019-03-26T07:06:47.688Z,102015.41
2019-03-26T07:09:15.463Z,102012.90
2019-03-26T07:11:43.507Z,102015.77
2019-03-26T07:14:11.231Z,102013.55
2019-03-26T10:49:34.031Z,102113.41
2019-03-26T10:52:01.763Z,102115.56
2019-03-26T10:54:29.594Z,102111.38
2019-03-26T10:56:57.371Z,102108.52
2019-03-26T10:59:25.567Z,102104.98
2019-03-26T11:01:53.935Z,102093.36
2019-03-26T11:04:22.265Z,102093.23
2019-03-26T11:06:50.549Z,102080.05
2019-03-26T11:09:26.729Z,102069.76
2019-03-26T11:11:49.898Z,102069.08
2019-03-26T11:14:18.963Z,102065.36
2019-03-26T11:16:48.674Z,102060.00
2019-03-26T11:19:17.361Z,102061.11
2019-03-26T11:21:47.468Z,102072.10
2019-03-26T11:24:15.648Z,102066.64
2019-03-26T11:26:43.388Z,102075.34
2019-03-26T11:29:11.123Z,102080.55
2019-03-26T11:31:38.823Z,102083.20
2019-03-26T11:34:06.610Z,102077.45
2019-03-26T11:36:34.308Z,102071.39
2019-03-26T11:39:02.071Z,102067.05
2019-03-26T11:41:33.485Z,102063.52
2019-03-26T11:44:04.461Z,102061.63
2019-03-26T11:46:30.913Z,102061.67
2019-03-26T11:48:58.636Z,102058.17
2019-03-26T11:51:26.356Z,102057.17
2019-03-26T11:53:54.112Z,102059.83
2019-03-26T11:56:21.887Z,102055.17
2019-03-26T11:58:49.604Z,102056.92
2019-03-26T12:01:17.336Z,102052.59
2019-03-26T12:03:46.414Z,102055.16
2019-03-26T12:06:14.675Z,102055.53
2019-03-26T12:08:43.315Z,102056.23
2019-03-26T12:11:11.907Z,102049.48
2019-03-26T12:13:46.153Z,102045.16
2019-03-26T12:16:16.195Z,102047.71
2019-03-26T12:18:44.868Z,102037.06
2019-03-26T12:21:12.611Z,102035.17
2019-03-26T12:23:40.240Z,102034.73
2019-03-26T12:26:08.276Z,102031.77
2019-03-26T12:28:36.387Z,102036.97
2019-03-26T12:31:04.124Z,102038.59
2019-03-26T12:33:35.183Z,102037.67
2019-03-26T12:36:03.443Z,102034.66
2019-03-26T12:38:31.179Z,102034.89
2019-03-26T12:40:58.944Z,102034.25
2019-03-26T12:43:26.760Z,102029.70
2019-03-26T12:45:54.475Z,102023.12
2019-03-26T12:48:22.180Z,102037.59
2019-03-26T12:50:50.194Z,102022.78
2019-03-26T12:53:17.893Z,102026.06
2019-03-26T12:55:45.746Z,102021.31
2019-03-26T12:58:13.821Z,102017.20
2019-03-26T13:00:41.572Z,102013.91
2019-03-26T13:03:09.462Z,102022.87
2019-03-26T13:05:37.180Z,102022.30
2019-03-26T13:08:04.903Z,102026.52
2019-03-26T13:10:33.155Z,102022.08
2019-03-26T13:13:00.900Z,102027.27
2019-03-26T13:15:28.649Z,102027.11
2019-03-26T13:17:56.275Z,102022.98
2019-03-26T13:20:24.120Z,102013.98
2019-03-26T13:22:51.903Z,102009.14
2019-03-26T13:25:19.653Z,102010.05
2019-03-26T13:27:47.480Z,102012.23
2019-03-26T13:30:16.366Z,102008.92
2019-03-26T13:32:44.532Z,102008.70
2019-03-26T13:35:12.578Z,101994.95
2019-03-26T13:37:40.426Z,101997.64
2019-03-26T13:40:08.923Z,101993.03
2019-03-26T13:42:36.788Z,101991.20
2019-03-26T13:45:05.170Z,101981.60
2019-03-26T13:47:32.946Z,101984.19
2019-03-26T13:50:00.702Z,101982.56
2019-03-26T13:52:28.348Z,101973.19
2019-03-26T13:54:56.104Z,101974.52
2019-03-26T13:57:23.898Z,101972.67
2019-03-26T13:59:51.617Z,101973.69
2019-03-26T14:02:19.425Z,101984.19
2019-03-26T14:04:47.561Z,101975.73
2019-03-26T14:07:15.351Z,101971.80
2019-03-26T14:09:43.479Z,101980.73
2019-03-26T14:12:11.607Z,101969.55
2019-03-26T14:14:40.117Z,101959.56
2019-03-26T14:17:07.871Z,101963.67
2019-03-26T14:19:35.667Z,101967.40
2019-03-26T14:22:03.523Z,101960.28
2019-03-26T14:24:31.286Z,101961.73
2019-03-26T14:26:59.157Z,101960.49
2019-03-26T14:29:26.875Z,101964.88
2019-03-26T14:31:54.803Z,101959.58
2019-03-26T14:34:22.525Z,101962.17
2019-03-26T14:36:50.224Z,101953.08
2019-03-26T14:39:18.231Z,101969.81
2019-03-26T14:41:46.026Z,101966.33
2019-03-26T14:44:13.770Z,101962.23
2019-03-26T14:46:41.864Z,101968.98
2019-03-26T14:49:09.606Z,101967.42
2019-03-26T14:51:37.313Z,101973.19
2019-03-26T14:54:05.107Z,101970.72
2019-03-26T14:56:32.855Z,101972.13
2019-03-26T14:59:00.638Z,101971.66
2019-03-26T15:01:28.440Z,101969.72
2019-03-26T15:03:56.214Z,101968.13
2019-03-26T15:06:24.268Z,101963.97
2019-03-26T15:08:52.006Z,101963.31
2019-03-26T15:11:19.785Z,101965.96
2019-03-26T15:13:49.474Z,101964.60
2019-03-26T15:16:17.187Z,101964.95
2019-03-26T15:18:45.328Z,101963.98
2019-03-26T15:21:13.237Z,101963.61
2019-03-26T15:23:40.950Z,101970.84
2019-03-26T15:26:08.721Z,101961.27
2019-03-26T15:28:36.456Z,101971.12
2019-03-26T15:31:04.174Z,101961.06
2019-03-26T15:33:33.776Z,101963.15
2019-03-26T15:36:01.627Z,101963.23
2019-03-26T15:38:29.531Z,101967.83
2019-03-26T15:40:57.390Z,101957.67
2019-03-26T15:43:25.125Z,101960.34
2019-03-26T15:45:52.773Z,101964.41
2019-03-26T15:48:20.610Z,101962.83
2019-03-26T15:50:48.351Z,101961.52
2019-03-26T15:53:16.546Z,101956.03
2019-03-26T15:55:44.975Z,101955.20
2019-03-26T15:58:14.329Z,101950.75
2019-03-26T16:00:42.589Z,101949.26
2019-03-26T16:03:10.326Z,101950.38
2019-03-26T16:05:38.166Z,101956.33
2019-03-26T16:08:05.905Z,101962.19
2019-03-26T16:10:33.676Z,101965.11
2019-03-26T16:13:01.448Z,101975.08
2019-03-26T16:15:29.349Z,101966.87
2019-03-26T16:17:57.218Z,101964.97
2019-03-26T16:20:24.947Z,101960.53
2019-03-26T16:22:52.718Z,101962.23
2019-03-26T16:25:20.574Z,101957.64
2019-03-26T16:27:50.889Z,101960.22
2019-03-26T16:30:18.679Z,101963.03
2019-03-26T16:32:46.480Z,101959.66
2019-03-26T16:35:14.266Z,101967.89
2019-03-26T16:37:41.990Z,101965.41
2019-03-26T16:40:09.864Z,101970.16
2019-03-26T16:42:37.610Z,101968.95
2019-03-26T16:45:05.845Z,101958.44
2019-03-26T16:47:33.659Z,101964.61
2019-03-26T16:50:20.480Z,101965.25
2019-03-26T16:52:48.643Z,101967.58
2019-03-26T16:55:16.275Z,101969.17
2019-03-26T16:57:44.061Z,101974.39
2019-03-26T17:03:13.100Z,101972.78
2019-03-26T17:06:00.260Z,101967.17
2019-03-26T17:08:28.015Z,101974.25
2019-03-26T17:10:55.662Z,101975.77
2019-03-26T17:13:23.392Z,101976.27
2019-03-26T17:15:51.036Z,101975.13
2019-03-26T17:18:18.743Z,101972.80
2019-03-26T17:20:46.704Z,101982.64
2019-03-26T17:23:33.658Z,101980.08
2019-03-26T17:26:01.377Z,101975.75
2019-03-26T17:28:29.105Z,101982.67
2019-03-26T17:30:56.838Z,101976.02
2019-03-26T17:33:24.588Z,101981.11
2019-03-26T17:35:52.234Z,101980.72
2019-03-26T17:38:20.000Z,101983.14
2019-03-26T17:40:47.791Z,101985.58
2019-03-26T17:43:16.143Z,101989.63
2019-03-26T17:45:44.255Z,101991.02
2019-03-26T17:51:26.565Z,101999.60
2019-03-26T17:53:54.639Z,101998.34
2019-03-26T17:56:22.385Z,101994.30
2019-03-26T17:58:50.242Z,102000.57
2019-03-26T18:04:40.987Z,102003.66
2019-03-26T18:07:08.741Z,102005.75
2019-03-26T18:09:36.490Z,102005.38
2019-03-26T18:12:04.613Z,102012.26
2019-03-26T18:14:32.340Z,102016.63
2019-03-26T18:17:00.118Z,102017.84
2019-03-26T18:19:28.165Z,102019.42
2019-03-26T18:21:55.953Z,102013.84
2019-03-26T18:24:23.739Z,102020.46
2019-03-26T18:26:51.552Z,102012.67
2019-03-26T18:29:19.181Z,102012.83
2019-03-26T18:32:27.494Z,102010.28
2019-03-26T18:35:14.499Z,102015.90
2019-03-26T18:37:42.346Z,102016.17
2019-03-26T18:40:10.710Z,102016.82
2019-03-26T18:42:43.829Z,102012.84
2019-03-26T18:45:09.507Z,102012.56
2019-03-26T18:47:43.808Z,102020.49
2019-03-26T18:50:11.798Z,102011.98
2019-03-26T18:52:39.576Z,102015.45
2019-03-26T18:55:07.632Z,102020.50
2019-03-26T18:57:35.424Z,102022.40
2019-03-26T19:00:04.455Z,102027.06
2019-03-26T19:02:32.289Z,102026.47
2019-03-26T19:05:00.368Z,102030.35
2019-03-26T19:07:28.041Z,102038.27
2019-03-26T19:09:55.796Z,102041.81
2019-03-26T19:12:23.542Z,102041.81
2019-03-26T19:14:51.310Z,102044.77
2019-03-26T19:17:19.030Z,102041.95
2019-03-26T19:19:46.768Z,102043.54
2019-03-26T19:22:14.498Z,102048.25
2019-03-26T19:24:42.248Z,102048.39
2019-03-26T19:27:10.340Z,102047.02
2019-03-26T19:29:38.097Z,102053.23
2019-03-26T19:32:05.816Z,102051.86
2019-03-26T19:34:33.589Z,102048.84
2019-03-26T19:37:01.220Z,102043.66
2019-03-26T19:39:29.072Z,102049.64
2019-03-26T19:41:56.890Z,102046.35
2019-03-26T19:44:24.597Z,102049.77
2019-03-26T19:46:52.357Z,102045.36
2019-03-26T19:49:20.400Z,102051.05
2019-03-26T19:51:48.129Z,102047.98
2019-03-26T19:54:15.859Z,102056.91
2019-03-26T19:56:43.584Z,102051.27
2019-03-26T19:59:11.441Z,102052.70
2019-03-26T20:01:39.176Z,102054.73
2019-03-26T20:04:06.934Z,102055.07
2019-03-26T20:06:34.657Z,102055.52
2019-03-26T20:09:03.811Z,102058.22
2019-03-26T20:11:31.648Z,102058.88
2019-03-26T20:14:00.200Z,102065.64
2019-03-26T20:16:41.113Z,102067.06
2019-03-26T20:18:57.559Z,102065.25
2019-03-26T20:21:25.547Z,102066.50
2019-03-26T20:23:53.322Z,102068.00
2019-03-26T20:26:21.073Z,102068.00
2019-03-26T20:28:48.748Z,102079.41
2019-03-26T20:31:16.807Z,102077.37
2019-03-26T20:33:44.697Z,102072.60
2019-03-26T20:36:12.396Z,102084.21
2019-03-26T20:38:40.657Z,102091.90
2019-03-26T20:41:08.717Z,102090.16
2019-03-26T20:43:37.750Z,102096.09
2019-03-26T20:46:05.530Z,102098.92
2019-03-26T20:48:33.334Z,102096.73
2019-03-26T20:51:01.520Z,102098.10
2019-03-26T20:53:30.009Z,102095.67
2019-03-26T20:55:58.514Z,102091.80
2019-03-26T20:58:26.259Z,102094.56
2019-03-26T21:00:54.033Z,102091.99
2019-03-26T21:03:22.072Z,102087.28
2019-03-26T21:05:49.809Z,102086.89
2019-03-26T21:08:18.564Z,102086.25
2019-03-26T21:10:46.376Z,102091.41
2019-03-26T21:13:14.648Z,102087.61
2019-03-26T21:15:57.007Z,102090.42
2019-03-26T21:18:21.171Z,102079.95
2019-03-26T21:20:50.065Z,102082.25
2019-03-26T21:23:20.491Z,102075.59
2019-03-26T21:25:48.256Z,102073.69
2019-03-26T21:28:16.105Z,102075.22
2019-03-26T21:30:43.888Z,102073.05
2019-03-26T21:33:12.069Z,102070.44
2019-03-26T21:35:39.941Z,102077.39
2019-03-26T21:38:07.687Z,102079.03
2019-03-26T21:40:35.466Z,102081.18
2019-03-26T21:43:03.570Z,102078.04
2019-03-26T21:45:36.186Z,102077.37
2019-03-26T21:48:04.589Z,102072.38
2019-03-26T21:50:32.367Z,102069.03
2019-03-26T21:53:01.061Z,102071.21
2019-03-26T21:55:29.016Z,102066.30
2019-03-26T21:57:56.697Z,102064.78
2019-03-26T22:00:24.869Z,102064.45
2019-03-26T22:02:52.932Z,102068.44
2019-03-26T22:05:20.721Z,102073.45
2019-03-26T22:07:48.526Z,102080.21
2019-03-26T22:10:18.477Z,102072.97
2019-03-26T22:12:46.254Z,102076.27
2019-03-26T22:15:14.195Z,102074.56
2019-03-26T22:17:41.794Z,102076.66
2019-03-26T22:20:10.101Z,102084.34
2019-03-26T22:22:37.865Z,102087.30
2019-03-26T22:25:06.504Z,102096.09
2019-03-26T22:27:34.620Z,102097.13
2019-03-26T22:30:02.802Z,102096.54
2019-03-26T22:32:30.792Z,102092.29
2019-03-26T22:34:58.532Z,102098.19
2019-03-26T22:37:26.332Z,102095.48
2019-03-26T22:39:54.118Z,102092.61
2019-03-26T22:42:22.280Z,102098.30
2019-03-26T22:44:50.146Z,102100.53
2019-03-26T22:47:17.854Z,102102.48
2019-03-26T22:49:45.459Z,102104.14
2019-03-26T22:52:13.402Z,102102.34
2019-03-26T22:54:41.175Z,102109.86
2019-03-26T22:57:08.928Z,102113.27
2019-03-26T22:59:36.679Z,102119.30
2019-03-26T23:02:04.652Z,102113.76
2019-03-26T23:04:32.371Z,102114.58
2019-03-26T23:07:00.886Z,102119.54
2019-03-26T23:09:28.621Z,102121.33
2019-03-26T23:11:56.387Z,102127.36
2019-03-26T23:14:24.243Z,102118.57
2019-03-26T23:16:51.963Z,102121.58
2019-03-26T23:19:20.159Z,102121.63
2019-03-26T23:21:47.970Z,102123.34
2019-03-26T23:24:15.757Z,102124.26
2019-03-26T23:26:43.450Z,102123.61
2019-03-26T23:29:11.236Z,102118.42
2019-03-26T23:31:39.281Z,102123.67
2019-03-26T23:34:06.979Z,102129.75
2019-03-26T23:36:35.118Z,102130.38
2019-03-26T23:39:04.140Z,102126.88
2019-03-26T23:41:33.657Z,102117.17
2019-03-26T23:44:01.434Z,102117.84
2019-03-26T23:46:29.228Z,102112.84
2019-03-26T23:48:57.194Z,102113.28
2019-03-26T23:51:25.041Z,102108.95
2019-03-26T23:53:52.887Z,102105.11
2019-03-26T23:56:20.654Z,102106.58
2019-03-26T23:58:49.298Z,102103.80
